createdAt,value
2022-10-06T00:00:40.111Z,0.00
2022-10-06T00:01:40.080Z,0.00
2022-10-06T00:02:40.063Z,0.00
2022-10-06T00:03:39.985Z,0.00
2022-10-06T00:04:39.944Z,0.00
2022-10-06T00:05:39.902Z,0.00
2022-10-06T00:06:39.875Z,0.00
2022-10-06T00:07:39.822Z,0.00
2022-10-06T00:08:39.790Z,0.00
2022-10-06T00:09:39.749Z,0.00
2022-10-06T00:10:39.701Z,0.00
2022-10-06T00:11:39.664Z,0.00
2022-10-06T00:12:39.638Z,0.00
2022-10-06T00:13:39.588Z,0.00
2022-10-06T00:14:39.547Z,0.00
2022-10-06T00:15:39.549Z,0.00
2022-10-06T00:16:39.465Z,0.00
2022-10-06T00:17:39.426Z,0.00
2022-10-06T00:18:39.400Z,0.00
2022-10-06T00:19:39.347Z,0.00
2022-10-06T00:20:39.309Z,0.00
2022-10-06T00:21:39.271Z,0.00
2022-10-06T00:22:39.226Z,0.00
2022-10-06T00:23:39.188Z,0.00
2022-10-06T00:24:39.159Z,0.00
2022-10-06T00:25:39.111Z,0.00
2022-10-06T00:26:39.068Z,0.00
2022-10-06T00:27:39.028Z,0.00
2022-10-06T00:28:39.025Z,0.00
2022-10-06T00:29:38.952Z,0.00
2022-10-06T00:30:38.919Z,0.00
2022-10-06T00:31:38.869Z,0.00
2022-10-06T00:32:38.834Z,0.00
2022-10-06T00:33:38.793Z,0.00
2022-10-06T00:34:38.753Z,0.00
2022-10-06T00:35:38.714Z,0.00
2022-10-06T00:36:38.691Z,0.00
2022-10-06T00:37:38.635Z,0.00
2022-10-06T00:38:38.594Z,0.00
2022-10-06T00:39:38.556Z,0.00
2022-10-06T00:40:38.515Z,0.00
2022-10-06T00:41:38.482Z,0.00
2022-10-06T00:42:38.447Z,0.00
2022-10-06T00:43:38.399Z,0.00
2022-10-06T00:44:38.359Z,0.00
2022-10-06T00:45:38.322Z,0.00
2022-10-06T00:46:38.365Z,0.00
2022-10-06T00:47:38.252Z,0.00
2022-10-06T00:48:38.206Z,0.00
2022-10-06T00:49:38.157Z,0.00
2022-10-06T00:50:38.122Z,0.00
2022-10-06T00:51:38.196Z,0.00
2022-10-06T00:52:38.039Z,0.00
2022-10-06T00:53:38.010Z,0.00
2022-10-06T00:54:37.960Z,0.00
2022-10-06T00:55:37.918Z,0.00
2022-10-06T00:56:37.879Z,0.00
2022-10-06T00:57:37.842Z,0.00
2022-10-06T00:58:37.799Z,0.00
2022-10-06T00:59:37.777Z,0.00
2022-10-06T01:00:37.719Z,0.00
2022-10-06T01:01:37.749Z,0.00
2022-10-06T01:02:37.736Z,0.00
2022-10-06T01:03:37.601Z,0.00
2022-10-06T01:04:37.560Z,0.00
2022-10-06T01:05:37.534Z,0.00
2022-10-06T01:06:37.481Z,0.00
2022-10-06T01:07:37.442Z,0.00
2022-10-06T01:08:37.402Z,0.00
2022-10-06T01:09:37.364Z,0.00
2022-10-06T01:10:37.322Z,0.00
2022-10-06T01:11:37.296Z,0.00
2022-10-06T01:12:37.241Z,0.00
2022-10-06T01:13:37.205Z,0.00
2022-10-06T01:14:37.163Z,0.00
2022-10-06T01:15:37.161Z,0.00
2022-10-06T01:16:37.083Z,0.00
2022-10-06T01:17:37.063Z,0.00
2022-10-06T01:18:37.004Z,0.00
2022-10-06T01:19:36.963Z,0.00
2022-10-06T01:20:36.929Z,0.00
2022-10-06T01:21:36.892Z,0.00
2022-10-06T01:22:36.843Z,0.00
2022-10-06T01:23:36.821Z,0.00
2022-10-06T01:24:36.765Z,0.00
2022-10-06T01:25:36.725Z,0.00
2022-10-06T01:26:36.685Z,0.00
2022-10-06T01:27:36.647Z,0.00
2022-10-06T01:28:36.660Z,0.00
2022-10-06T01:29:36.577Z,0.00
2022-10-06T01:30:36.525Z,0.00
2022-10-06T01:31:36.507Z,0.00
2022-10-06T01:32:36.446Z,0.00
2022-10-06T01:33:36.410Z,0.00
2022-10-06T01:34:36.368Z,0.00
2022-10-06T01:35:36.336Z,0.00
2022-10-06T01:36:36.284Z,0.00
2022-10-06T01:37:36.246Z,0.00
2022-10-06T01:38:36.205Z,0.00
2022-10-06T01:39:36.166Z,0.00
2022-10-06T01:40:36.126Z,0.00
2022-10-06T01:41:36.098Z,0.00
2022-10-06T01:42:36.043Z,0.00
2022-10-06T01:43:36.004Z,0.00
2022-10-06T01:44:35.971Z,0.00
2022-10-06T01:45:35.938Z,0.00
2022-10-06T01:46:35.926Z,0.00
2022-10-06T01:47:35.859Z,0.00
2022-10-06T01:48:35.816Z,0.00
2022-10-06T01:49:35.764Z,0.00
2022-10-06T01:50:35.724Z,0.00
2022-10-06T01:51:35.689Z,0.00
2022-10-06T01:52:35.652Z,0.00
2022-10-06T01:53:35.616Z,0.00
2022-10-06T01:54:35.564Z,0.00
2022-10-06T01:55:35.523Z,0.00
2022-10-06T01:56:35.486Z,0.00
2022-10-06T01:57:35.444Z,0.00
2022-10-06T01:58:35.404Z,0.00
2022-10-06T01:59:35.370Z,0.00
2022-10-06T02:00:35.336Z,0.00
2022-10-06T02:01:35.346Z,0.00
2022-10-06T02:02:35.245Z,0.00
2022-10-06T02:03:35.204Z,0.00
2022-10-06T02:04:35.165Z,0.00
2022-10-06T02:05:35.129Z,0.00
2022-10-06T02:06:35.195Z,0.00
2022-10-06T02:07:35.043Z,0.00
2022-10-06T02:08:35.003Z,0.00
2022-10-06T02:09:35.030Z,0.00
2022-10-06T02:10:35.159Z,0.00
2022-10-06T02:11:34.883Z,0.00
2022-10-06T02:12:34.883Z,0.00
2022-10-06T02:13:34.807Z,0.00
2022-10-06T02:14:34.778Z,0.00
2022-10-06T02:15:34.787Z,0.00
2022-10-06T02:16:34.684Z,0.00
2022-10-06T02:17:34.644Z,0.00
2022-10-06T02:18:34.615Z,0.00
2022-10-06T02:19:34.563Z,0.00
2022-10-06T02:20:34.528Z,0.00
2022-10-06T02:21:34.480Z,0.00
2022-10-06T02:22:34.443Z,0.00
2022-10-06T02:23:34.402Z,0.00
2022-10-06T02:24:34.375Z,0.00
2022-10-06T02:25:34.320Z,0.00
2022-10-06T02:26:34.289Z,0.00
2022-10-06T02:27:34.239Z,0.00
2022-10-06T02:28:34.588Z,0.00
2022-10-06T02:29:34.159Z,0.00
2022-10-06T02:30:34.135Z,0.00
2022-10-06T02:31:34.107Z,0.00
2022-10-06T02:32:34.039Z,0.00
2022-10-06T02:33:33.997Z,0.00
2022-10-06T02:34:33.962Z,0.00
2022-10-06T02:35:33.919Z,0.00
2022-10-06T02:36:33.892Z,0.00
2022-10-06T02:37:33.840Z,0.00
2022-10-06T02:38:33.799Z,0.00
2022-10-06T02:39:33.757Z,0.00
2022-10-06T02:40:33.719Z,0.00
2022-10-06T02:41:33.680Z,0.00
2022-10-06T02:42:33.653Z,0.00
2022-10-06T02:43:33.600Z,0.00
2022-10-06T02:44:33.559Z,0.00
2022-10-06T02:45:33.597Z,0.00
2022-10-06T02:46:42.530Z,0.00
2022-10-06T02:47:33.437Z,0.00
2022-10-06T02:48:33.411Z,0.00
2022-10-06T02:49:33.357Z,0.00
2022-10-06T02:50:33.319Z,0.00
2022-10-06T02:51:33.277Z,0.00
2022-10-06T02:52:33.239Z,0.00
2022-10-06T02:53:33.197Z,0.00
2022-10-06T02:54:33.220Z,0.00
2022-10-06T02:55:33.116Z,0.00
2022-10-06T02:56:33.076Z,0.00
2022-10-06T02:57:33.039Z,0.00
2022-10-06T02:58:33.027Z,0.00
2022-10-06T02:59:32.955Z,0.00
2022-10-06T03:00:32.992Z,0.00
2022-10-06T03:01:32.912Z,0.00
2022-10-06T03:02:32.932Z,0.00
2022-10-06T03:03:32.797Z,0.00
2022-10-06T03:04:32.756Z,0.00
2022-10-06T03:05:32.715Z,0.00
2022-10-06T03:06:32.685Z,0.00
2022-10-06T03:07:32.633Z,0.00
2022-10-06T03:08:32.715Z,0.00
2022-10-06T03:09:32.581Z,0.00
2022-10-06T03:10:32.517Z,0.00
2022-10-06T03:11:32.492Z,0.00
2022-10-06T03:12:32.441Z,0.00
2022-10-06T03:13:32.396Z,0.00
2022-10-06T03:14:32.360Z,0.00
2022-10-06T03:15:32.315Z,0.00
2022-10-06T03:16:32.396Z,0.00
2022-10-06T03:17:32.248Z,0.00
2022-10-06T03:18:32.571Z,0.00
2022-10-06T03:19:32.154Z,0.00
2022-10-06T03:20:32.115Z,0.00
2022-10-06T03:21:32.081Z,0.00
2022-10-06T03:22:32.049Z,0.00
2022-10-06T03:23:31.995Z,0.00
2022-10-06T03:24:31.966Z,0.00
2022-10-06T03:25:31.914Z,0.00
2022-10-06T03:26:31.889Z,0.00
2022-10-06T03:27:31.842Z,0.00
2022-10-06T03:28:32.443Z,0.00
2022-10-06T03:29:31.754Z,0.00
2022-10-06T03:30:31.722Z,0.00
2022-10-06T03:31:31.714Z,0.00
2022-10-06T03:32:31.634Z,0.00
2022-10-06T03:33:31.599Z,0.00
2022-10-06T03:34:31.566Z,0.00
2022-10-06T03:35:31.517Z,0.00
2022-10-06T03:36:31.472Z,0.00
2022-10-06T03:37:31.432Z,0.00
2022-10-06T03:38:31.745Z,0.00
2022-10-06T03:39:31.357Z,0.00
2022-10-06T03:40:31.326Z,0.00
2022-10-06T03:41:31.273Z,0.00
2022-10-06T03:42:31.232Z,0.00
2022-10-06T03:43:31.189Z,0.00
2022-10-06T03:44:31.151Z,0.00
2022-10-06T03:45:31.109Z,0.00
2022-10-06T03:46:31.111Z,0.00
2022-10-06T03:47:31.029Z,0.00
2022-10-06T03:48:31.528Z,0.00
2022-10-06T03:49:30.960Z,0.00
2022-10-06T03:50:30.914Z,0.00
2022-10-06T03:51:30.872Z,0.00
2022-10-06T03:52:30.831Z,0.00
2022-10-06T03:53:30.789Z,0.00
2022-10-06T03:54:30.762Z,0.00
2022-10-06T03:55:30.709Z,0.00
2022-10-06T03:56:30.669Z,0.00
2022-10-06T03:57:30.628Z,0.00
2022-10-06T03:58:31.005Z,0.00
2022-10-06T03:59:30.564Z,0.00
2022-10-06T04:00:30.518Z,0.00
2022-10-06T04:01:30.504Z,0.00
2022-10-06T04:02:30.510Z,0.00
2022-10-06T04:03:30.396Z,0.00
2022-10-06T04:04:30.348Z,0.00
2022-10-06T04:05:30.304Z,0.00
2022-10-06T04:06:30.274Z,0.00
2022-10-06T04:07:30.224Z,0.00
2022-10-06T04:08:30.610Z,0.00
2022-10-06T04:09:30.142Z,0.00
2022-10-06T04:10:30.106Z,0.00
2022-10-06T04:11:30.061Z,0.00
2022-10-06T04:12:30.036Z,0.00
2022-10-06T04:13:29.982Z,0.00
2022-10-06T04:14:29.956Z,0.00
2022-10-06T04:15:29.904Z,0.00
2022-10-06T04:16:29.903Z,0.00
2022-10-06T04:17:29.830Z,0.00
2022-10-06T04:18:30.039Z,0.00
2022-10-06T04:19:29.747Z,0.00
2022-10-06T04:20:29.700Z,0.00
2022-10-06T04:21:29.662Z,0.00
2022-10-06T04:22:29.620Z,0.00
2022-10-06T04:23:29.591Z,0.00
2022-10-06T04:24:29.538Z,0.00
2022-10-06T04:25:29.499Z,0.00
2022-10-06T04:26:29.463Z,0.00
2022-10-06T04:27:29.418Z,0.00
2022-10-06T04:28:29.647Z,0.00
2022-10-06T04:29:29.336Z,0.00
2022-10-06T04:30:29.303Z,0.00
2022-10-06T04:31:29.333Z,0.00
2022-10-06T04:32:29.217Z,0.00
2022-10-06T04:33:29.183Z,0.00
2022-10-06T04:34:29.145Z,0.00
2022-10-06T04:35:29.095Z,0.00
2022-10-06T04:36:29.056Z,0.00
2022-10-06T04:37:29.019Z,0.00
2022-10-06T04:38:29.309Z,0.00
2022-10-06T04:39:28.946Z,0.00
2022-10-06T04:40:28.891Z,0.00
2022-10-06T04:41:28.850Z,0.00
2022-10-06T04:42:33.946Z,0.00
2022-10-06T04:43:28.769Z,0.00
2022-10-06T04:44:28.729Z,0.00
2022-10-06T04:45:28.746Z,0.00
2022-10-06T04:46:44.968Z,0.00
2022-10-06T04:47:28.607Z,0.00
2022-10-06T04:48:28.878Z,0.00
2022-10-06T04:49:28.529Z,0.00
2022-10-06T04:50:28.487Z,0.00
2022-10-06T04:51:28.455Z,0.00
2022-10-06T04:52:28.505Z,0.00
2022-10-06T04:53:28.365Z,0.00
2022-10-06T04:54:33.389Z,0.00
2022-10-06T04:55:28.282Z,0.00
2022-10-06T04:56:28.245Z,0.00
2022-10-06T04:57:28.216Z,0.00
2022-10-06T04:58:28.535Z,0.00
2022-10-06T04:59:28.121Z,0.00
2022-10-06T05:00:28.082Z,0.00
2022-10-06T05:01:28.086Z,0.00
2022-10-06T05:02:28.028Z,0.00
2022-10-06T05:03:27.970Z,0.00
2022-10-06T05:04:27.934Z,0.00
2022-10-06T05:05:27.878Z,0.00
2022-10-06T05:06:27.839Z,4.00
2022-10-06T05:07:27.795Z,0.00
2022-10-06T05:08:28.265Z,0.00
2022-10-06T05:09:27.734Z,4.00
2022-10-06T05:10:27.674Z,4.00
2022-10-06T05:11:27.635Z,4.00
2022-10-06T05:12:27.595Z,4.00
2022-10-06T05:13:27.561Z,4.00
2022-10-06T05:14:27.512Z,8.00
2022-10-06T05:15:27.491Z,12.00
2022-10-06T05:16:27.488Z,8.00
2022-10-06T05:17:27.393Z,12.00
2022-10-06T05:18:27.759Z,16.00
2022-10-06T05:19:27.321Z,20.00
2022-10-06T05:20:27.269Z,24.00
2022-10-06T05:21:27.230Z,32.00
2022-10-06T05:22:27.187Z,36.00
2022-10-06T05:23:27.168Z,40.00
2022-10-06T05:24:27.113Z,48.00
2022-10-06T05:25:27.112Z,56.00
2022-10-06T05:26:27.030Z,68.00
2022-10-06T05:27:26.983Z,76.00
2022-10-06T05:28:27.534Z,88.00
2022-10-06T05:29:26.907Z,100.00
2022-10-06T05:30:26.862Z,112.00
2022-10-06T05:31:26.901Z,128.00
2022-10-06T05:32:26.783Z,144.00
2022-10-06T05:33:26.739Z,164.00
2022-10-06T05:34:26.705Z,184.00
2022-10-06T05:35:26.658Z,204.00
2022-10-06T05:36:26.618Z,224.00
2022-10-06T05:37:26.591Z,244.00
2022-10-06T05:38:27.072Z,272.00
2022-10-06T05:39:26.500Z,296.00
2022-10-06T05:40:26.456Z,320.00
2022-10-06T05:41:26.416Z,352.00
2022-10-06T05:42:29.691Z,380.00
2022-10-06T05:43:26.347Z,408.00
2022-10-06T05:44:26.290Z,444.00
2022-10-06T05:45:26.252Z,476.00
2022-10-06T05:46:26.210Z,508.00
2022-10-06T05:47:26.170Z,548.00
2022-10-06T05:48:26.661Z,584.00
2022-10-06T05:49:26.100Z,624.00
2022-10-06T05:50:26.045Z,664.00
2022-10-06T05:51:30.294Z,704.00
2022-10-06T05:52:25.964Z,748.00
2022-10-06T05:53:25.926Z,788.00
2022-10-06T05:54:25.884Z,824.00
2022-10-06T05:55:25.850Z,856.00
2022-10-06T05:56:25.806Z,876.00
2022-10-06T05:57:25.758Z,916.00
2022-10-06T05:58:25.719Z,944.00
2022-10-06T05:59:25.681Z,988.00
2022-10-06T06:00:25.637Z,1052.00
2022-10-06T06:01:25.763Z,1132.00
2022-10-06T06:02:25.613Z,1244.00
2022-10-06T06:03:25.517Z,1352.00
2022-10-06T06:04:25.474Z,1408.00
2022-10-06T06:05:25.437Z,1448.00
2022-10-06T06:06:25.398Z,1512.00
2022-10-06T06:07:25.387Z,1592.00
2022-10-06T06:08:25.324Z,1656.00
2022-10-06T06:09:25.271Z,1716.00
2022-10-06T06:10:25.228Z,1768.00
2022-10-06T06:11:25.190Z,1844.00
2022-10-06T06:12:25.154Z,1904.00
2022-10-06T06:13:25.120Z,1968.00
2022-10-06T06:14:25.066Z,2028.00
2022-10-06T06:15:25.024Z,2092.00
2022-10-06T06:16:25.019Z,2156.00
2022-10-06T06:17:24.963Z,2220.00
2022-10-06T06:18:24.901Z,2364.00
2022-10-06T06:19:28.944Z,2800.00
2022-10-06T06:20:24.855Z,4136.00
2022-10-06T06:21:24.779Z,5112.00
2022-10-06T06:22:24.738Z,5596.00
2022-10-06T06:23:24.706Z,5872.00
2022-10-06T06:24:24.666Z,6100.00
2022-10-06T06:25:24.617Z,5920.00
2022-10-06T06:26:24.575Z,6128.00
2022-10-06T06:27:24.536Z,5484.00
2022-10-06T06:28:24.548Z,4072.00
2022-10-06T06:29:24.466Z,3960.00
2022-10-06T06:30:24.417Z,4188.00
2022-10-06T06:31:24.399Z,5028.00
2022-10-06T06:32:24.334Z,5276.00
2022-10-06T06:33:24.300Z,6960.00
2022-10-06T06:34:24.254Z,7456.00
2022-10-06T06:35:24.227Z,7936.00
2022-10-06T06:36:24.174Z,7500.00
2022-10-06T06:37:24.140Z,6152.00
2022-10-06T06:38:24.100Z,7124.00
2022-10-06T06:39:24.059Z,8468.00
2022-10-06T06:40:24.015Z,8844.00
2022-10-06T06:41:23.992Z,8544.00
2022-10-06T06:42:23.949Z,9220.00
2022-10-06T06:43:23.904Z,9540.00
2022-10-06T06:44:23.864Z,9980.00
2022-10-06T06:45:23.823Z,9116.00
2022-10-06T06:46:23.974Z,9728.00
2022-10-06T06:47:25.931Z,8036.00
2022-10-06T06:48:23.716Z,8564.00
2022-10-06T06:49:23.675Z,9424.00
2022-10-06T06:50:23.639Z,8292.00
2022-10-06T06:51:23.592Z,9348.00
2022-10-06T06:52:23.553Z,10340.00
2022-10-06T06:53:23.534Z,11324.00
2022-10-06T06:54:23.476Z,10228.00
2022-10-06T06:55:23.444Z,11384.00
2022-10-06T06:56:23.399Z,11348.00
2022-10-06T06:57:23.364Z,11432.00
2022-10-06T06:58:23.326Z,11836.00
2022-10-06T06:59:23.301Z,11768.00
2022-10-06T07:00:23.357Z,11932.00
2022-10-06T07:01:23.269Z,12116.00
2022-10-06T07:02:23.204Z,12192.00
2022-10-06T07:03:44.930Z,9904.00
2022-10-06T07:04:23.114Z,11748.00
2022-10-06T07:05:23.080Z,12536.00
2022-10-06T07:06:27.100Z,12528.00
2022-10-06T07:07:22.993Z,12556.00
2022-10-06T07:08:22.956Z,12592.00
2022-10-06T07:09:22.923Z,12672.00
2022-10-06T07:10:22.895Z,12792.00
2022-10-06T07:11:22.848Z,12900.00
2022-10-06T07:12:22.813Z,12884.00
2022-10-06T07:13:25.609Z,13028.00
2022-10-06T07:14:22.746Z,12672.00
2022-10-06T07:15:22.706Z,13088.00
2022-10-06T07:16:22.680Z,13324.00
2022-10-06T07:17:22.635Z,13392.00
2022-10-06T07:18:22.613Z,13460.00
2022-10-06T07:19:24.828Z,13548.00
2022-10-06T07:20:22.526Z,13576.00
2022-10-06T07:21:22.494Z,13660.00
2022-10-06T07:22:22.464Z,13740.00
2022-10-06T07:23:22.417Z,13800.00
2022-10-06T07:24:22.381Z,13892.00
2022-10-06T07:25:25.756Z,13976.00
2022-10-06T07:26:22.313Z,14072.00
2022-10-06T07:27:22.277Z,14108.00
2022-10-06T07:28:22.325Z,14168.00
2022-10-06T07:29:22.212Z,14224.00
2022-10-06T07:30:22.171Z,14272.00
2022-10-06T07:31:22.216Z,14332.00
2022-10-06T07:32:22.136Z,14364.00
2022-10-06T07:33:22.078Z,14436.00
2022-10-06T07:34:22.031Z,14456.00
2022-10-06T07:35:21.999Z,14476.00
2022-10-06T07:36:21.976Z,14524.00
2022-10-06T07:37:21.929Z,14608.00
2022-10-06T07:38:21.903Z,14664.00
2022-10-06T07:39:21.860Z,14744.00
2022-10-06T07:40:21.824Z,14848.00
2022-10-06T07:41:21.789Z,14928.00
2022-10-06T07:42:21.764Z,14908.00
2022-10-06T07:43:21.729Z,14936.00
2022-10-06T07:44:21.684Z,14968.00
2022-10-06T07:45:21.652Z,15024.00
2022-10-06T07:46:21.662Z,15052.00
2022-10-06T07:47:21.584Z,15108.00
2022-10-06T07:48:21.564Z,15204.00
2022-10-06T07:49:21.515Z,15212.00
2022-10-06T07:50:21.481Z,15244.00
2022-10-06T07:51:21.455Z,15252.00
2022-10-06T07:52:21.411Z,15380.00
2022-10-06T07:53:21.379Z,15468.00
2022-10-06T07:54:26.504Z,15680.00
2022-10-06T07:55:21.312Z,15680.00
2022-10-06T07:56:21.279Z,15744.00
2022-10-06T07:57:21.244Z,15744.00
2022-10-06T07:58:21.208Z,15776.00
2022-10-06T07:59:21.175Z,15808.00
2022-10-06T08:00:21.207Z,15904.00
2022-10-06T08:01:21.149Z,15968.00
2022-10-06T08:02:21.104Z,16032.00
2022-10-06T08:03:21.139Z,16032.00
2022-10-06T08:04:21.004Z,16064.00
2022-10-06T08:05:20.973Z,16096.00
2022-10-06T08:06:20.946Z,16096.00
2022-10-06T08:07:20.906Z,16128.00
2022-10-06T08:08:20.871Z,16160.00
2022-10-06T08:09:20.838Z,16224.00
2022-10-06T08:10:20.813Z,16192.00
2022-10-06T08:11:20.771Z,16224.00
2022-10-06T08:12:20.747Z,16256.00
2022-10-06T08:13:20.704Z,16288.00
2022-10-06T08:14:20.667Z,16416.00
2022-10-06T08:15:20.643Z,16416.00
2022-10-06T08:16:20.670Z,16448.00
2022-10-06T08:17:20.570Z,16416.00
2022-10-06T08:18:44.411Z,16448.00
2022-10-06T08:19:20.505Z,16448.00
2022-10-06T08:20:20.472Z,16448.00
2022-10-06T08:21:20.437Z,16544.00
2022-10-06T08:22:20.401Z,16448.00
2022-10-06T08:23:20.369Z,16544.00
2022-10-06T08:24:20.352Z,16480.00
2022-10-06T08:25:20.303Z,16448.00
2022-10-06T08:26:20.269Z,16576.00
2022-10-06T08:27:20.246Z,16640.00
2022-10-06T08:28:20.250Z,16576.00
2022-10-06T08:29:20.183Z,16512.00
2022-10-06T08:30:20.137Z,16512.00
2022-10-06T08:31:20.179Z,16512.00
2022-10-06T08:32:20.072Z,16608.00
2022-10-06T08:33:21.409Z,16544.00
2022-10-06T08:34:20.013Z,16640.00
2022-10-06T08:35:19.982Z,16608.00
2022-10-06T08:36:19.954Z,16608.00
2022-10-06T08:37:20.572Z,16608.00
2022-10-06T08:38:19.875Z,16576.00
2022-10-06T08:39:19.843Z,16640.00
2022-10-06T08:40:19.807Z,16640.00
2022-10-06T08:41:19.787Z,16736.00
2022-10-06T08:42:19.742Z,16800.00
2022-10-06T08:43:19.711Z,16800.00
2022-10-06T08:44:19.757Z,16768.00
2022-10-06T08:45:19.647Z,16704.00
2022-10-06T08:46:22.367Z,16672.00
2022-10-06T08:47:28.642Z,16736.00
2022-10-06T08:48:19.546Z,16704.00
2022-10-06T08:49:19.578Z,16736.00
2022-10-06T08:50:19.479Z,16800.00
2022-10-06T08:51:19.488Z,16800.00
2022-10-06T08:52:19.415Z,16736.00
2022-10-06T08:53:19.395Z,16800.00
2022-10-06T08:54:19.349Z,16928.00
2022-10-06T08:55:19.316Z,16896.00
2022-10-06T08:56:19.282Z,16864.00
2022-10-06T08:57:19.295Z,16704.00
2022-10-06T08:58:20.140Z,16704.00
2022-10-06T08:59:20.085Z,16864.00
2022-10-06T09:00:22.046Z,16960.00
2022-10-06T09:01:19.144Z,16800.00
2022-10-06T09:02:19.125Z,16864.00
2022-10-06T09:03:19.053Z,17024.00
2022-10-06T09:04:19.019Z,17568.00
2022-10-06T09:05:18.999Z,17376.00
2022-10-06T09:06:18.967Z,17216.00
2022-10-06T09:07:18.923Z,17024.00
2022-10-06T09:08:18.930Z,17056.00
2022-10-06T09:09:18.856Z,16864.00
2022-10-06T09:10:18.908Z,17024.00
2022-10-06T09:11:18.802Z,16928.00
2022-10-06T09:12:18.755Z,16992.00
2022-10-06T09:13:21.927Z,17376.00
2022-10-06T09:14:18.692Z,18048.00
2022-10-06T09:15:18.660Z,17920.00
2022-10-06T09:16:18.659Z,17344.00
2022-10-06T09:17:18.613Z,17792.00
2022-10-06T09:18:18.561Z,17664.00
2022-10-06T09:19:18.529Z,14912.00
2022-10-06T09:20:18.527Z,17120.00
2022-10-06T09:21:18.474Z,14608.00
2022-10-06T09:22:18.448Z,17248.00
2022-10-06T09:23:18.403Z,16864.00
2022-10-06T09:24:18.398Z,17408.00
2022-10-06T09:25:18.335Z,18208.00
2022-10-06T09:26:18.299Z,15716.00
2022-10-06T09:27:18.291Z,17696.00
2022-10-06T09:28:18.264Z,17120.00
2022-10-06T09:29:18.205Z,16544.00
2022-10-06T09:30:18.203Z,16640.00
2022-10-06T09:31:18.166Z,16448.00
2022-10-06T09:32:18.117Z,16352.00
2022-10-06T09:33:18.084Z,16192.00
2022-10-06T09:34:18.041Z,15628.00
2022-10-06T09:35:18.013Z,15684.00
2022-10-06T09:36:17.977Z,15724.00
2022-10-06T09:37:17.957Z,16352.00
2022-10-06T09:38:17.913Z,18112.00
2022-10-06T09:39:17.882Z,19104.00
2022-10-06T09:40:17.856Z,19008.00
2022-10-06T09:41:17.832Z,17376.00
2022-10-06T09:42:17.786Z,16512.00
2022-10-06T09:43:17.756Z,16160.00
2022-10-06T09:44:17.723Z,5528.00
2022-10-06T09:45:17.701Z,11900.00
2022-10-06T09:46:17.669Z,11920.00
2022-10-06T09:47:17.627Z,15676.00
2022-10-06T09:48:19.018Z,15048.00
2022-10-06T09:49:17.563Z,15656.00
2022-10-06T09:50:17.764Z,15692.00
2022-10-06T09:51:17.503Z,15652.00
2022-10-06T09:52:17.466Z,10816.00
2022-10-06T09:53:17.433Z,5776.00
2022-10-06T09:54:17.401Z,16864.00
2022-10-06T09:55:17.380Z,16704.00
2022-10-06T09:56:17.337Z,16256.00
2022-10-06T09:57:17.307Z,15836.00
2022-10-06T09:58:17.271Z,6552.00
2022-10-06T09:59:17.238Z,5684.00
2022-10-06T10:00:17.218Z,15004.00
2022-10-06T10:01:17.220Z,6088.00
2022-10-06T10:02:17.148Z,4544.00
2022-10-06T10:03:17.199Z,15452.00
2022-10-06T10:04:21.540Z,15652.00
2022-10-06T10:05:17.043Z,11080.00
2022-10-06T10:06:17.019Z,15052.00
2022-10-06T10:07:16.981Z,14872.00
2022-10-06T10:08:16.945Z,16020.00
2022-10-06T10:09:19.058Z,17248.00
2022-10-06T10:10:16.877Z,17760.00
2022-10-06T10:11:16.879Z,16832.00
2022-10-06T10:12:16.833Z,16256.00
2022-10-06T10:13:16.780Z,15780.00
2022-10-06T10:14:16.753Z,15464.00
2022-10-06T10:15:16.713Z,15428.00
2022-10-06T10:16:16.753Z,15296.00
2022-10-06T10:17:16.657Z,15364.00
2022-10-06T10:18:16.614Z,15404.00
2022-10-06T10:19:16.582Z,15544.00
2022-10-06T10:20:16.554Z,15348.00
2022-10-06T10:21:16.516Z,15780.00
2022-10-06T10:22:16.484Z,16640.00
2022-10-06T10:23:16.463Z,16544.00
2022-10-06T10:24:16.417Z,17792.00
2022-10-06T10:25:16.385Z,18784.00
2022-10-06T10:26:16.352Z,18272.00
2022-10-06T10:27:16.322Z,17440.00
2022-10-06T10:28:16.325Z,16480.00
2022-10-06T10:29:16.265Z,15836.00
2022-10-06T10:30:16.221Z,15628.00
2022-10-06T10:31:16.237Z,15340.00
2022-10-06T10:32:16.157Z,15236.00
2022-10-06T10:33:16.148Z,14912.00
2022-10-06T10:34:26.018Z,15104.00
2022-10-06T10:35:16.070Z,15252.00
2022-10-06T10:36:16.029Z,15168.00
2022-10-06T10:37:15.995Z,14808.00
2022-10-06T10:38:15.963Z,14440.00
2022-10-06T10:39:15.931Z,14756.00
2022-10-06T10:40:15.911Z,15140.00
2022-10-06T10:41:15.867Z,15228.00
2022-10-06T10:42:15.837Z,14732.00
2022-10-06T10:43:15.804Z,14152.00
2022-10-06T10:44:15.772Z,13868.00
2022-10-06T10:45:15.740Z,13572.00
2022-10-06T10:46:15.767Z,13564.00
2022-10-06T10:47:15.673Z,13184.00
2022-10-06T10:48:15.643Z,13440.00
2022-10-06T10:49:15.610Z,13788.00
2022-10-06T10:50:15.579Z,13916.00
2022-10-06T10:51:15.558Z,14340.00
2022-10-06T10:52:15.515Z,14376.00
2022-10-06T10:53:15.560Z,14152.00
2022-10-06T10:54:15.461Z,14188.00
2022-10-06T10:55:15.421Z,14252.00
2022-10-06T10:56:15.386Z,14232.00
2022-10-06T10:57:15.369Z,13848.00
2022-10-06T10:58:15.323Z,13568.00
2022-10-06T10:59:15.288Z,13652.00
2022-10-06T11:00:15.258Z,13668.00
2022-10-06T11:01:15.242Z,13712.00
2022-10-06T11:02:15.252Z,13384.00
2022-10-06T11:03:15.160Z,13544.00
2022-10-06T11:04:15.130Z,13544.00
2022-10-06T11:05:15.095Z,13572.00
2022-10-06T11:06:15.076Z,13128.00
2022-10-06T11:07:15.044Z,13520.00
2022-10-06T11:08:15.010Z,13520.00
2022-10-06T11:09:14.967Z,13704.00
2022-10-06T11:10:14.943Z,13492.00
2022-10-06T11:11:14.907Z,13416.00
2022-10-06T11:12:14.883Z,13336.00
2022-10-06T11:13:14.840Z,13344.00
2022-10-06T11:14:14.810Z,12988.00
2022-10-06T11:15:14.780Z,13244.00
2022-10-06T11:16:14.813Z,13368.00
2022-10-06T11:17:14.713Z,13640.00
2022-10-06T11:18:17.136Z,13780.00
2022-10-06T11:19:14.649Z,5476.00
2022-10-06T11:20:14.622Z,11204.00
2022-10-06T11:21:14.582Z,11672.00
2022-10-06T11:22:14.551Z,13212.00
2022-10-06T11:23:14.518Z,13152.00
2022-10-06T11:24:14.500Z,13208.00
2022-10-06T11:25:14.457Z,12976.00
2022-10-06T11:26:14.486Z,11436.00
2022-10-06T11:27:14.396Z,9168.00
2022-10-06T11:28:14.387Z,13160.00
2022-10-06T11:29:14.321Z,12972.00
2022-10-06T11:30:14.287Z,13060.00
2022-10-06T11:31:16.682Z,13140.00
2022-10-06T11:32:14.236Z,12932.00
2022-10-06T11:33:14.191Z,13024.00
2022-10-06T11:34:14.164Z,13044.00
2022-10-06T11:35:14.126Z,12980.00
2022-10-06T11:36:14.092Z,12996.00
2022-10-06T11:37:14.062Z,13012.00
2022-10-06T11:38:14.037Z,13024.00
2022-10-06T11:39:13.994Z,12900.00
2022-10-06T11:40:13.980Z,12968.00
2022-10-06T11:41:13.932Z,12900.00
2022-10-06T11:42:13.899Z,12836.00
2022-10-06T11:43:13.872Z,12760.00
2022-10-06T11:44:13.872Z,12696.00
2022-10-06T11:45:13.803Z,12828.00
2022-10-06T11:46:13.806Z,12792.00
2022-10-06T11:47:13.737Z,12736.00
2022-10-06T11:48:13.839Z,12724.00
2022-10-06T11:49:13.670Z,12804.00
2022-10-06T11:50:13.634Z,12876.00
2022-10-06T11:51:13.602Z,12720.00
2022-10-06T11:52:13.572Z,12720.00
2022-10-06T11:53:13.552Z,12708.00
2022-10-06T11:54:13.505Z,12728.00
2022-10-06T11:55:13.474Z,12644.00
2022-10-06T11:56:13.460Z,12516.00
2022-10-06T11:57:13.455Z,12576.00
2022-10-06T11:58:30.243Z,12316.00
2022-10-06T11:59:13.371Z,12440.00
2022-10-06T12:00:13.309Z,12284.00
2022-10-06T12:01:13.282Z,12064.00
2022-10-06T12:02:13.335Z,11900.00
2022-10-06T12:03:13.277Z,11660.00
2022-10-06T12:04:13.204Z,11448.00
2022-10-06T12:05:49.390Z,11232.00
2022-10-06T12:06:13.123Z,11900.00
2022-10-06T12:07:13.083Z,11440.00
2022-10-06T12:08:13.052Z,11760.00
2022-10-06T12:09:13.021Z,11932.00
2022-10-06T12:10:12.996Z,12028.00
2022-10-06T12:11:12.954Z,12080.00
2022-10-06T12:12:12.936Z,12248.00
2022-10-06T12:13:39.145Z,12164.00
2022-10-06T12:15:37.922Z,12176.00
2022-10-06T12:17:18.361Z,11872.00
2022-10-06T12:18:12.727Z,12208.00
2022-10-06T12:19:12.694Z,12204.00
2022-10-06T12:20:12.666Z,12240.00
2022-10-06T12:21:12.646Z,12204.00
2022-10-06T12:22:12.599Z,12212.00
2022-10-06T12:23:12.571Z,12204.00
2022-10-06T12:25:12.506Z,12136.00
2022-10-06T12:26:12.481Z,12196.00
2022-10-06T12:27:12.441Z,12144.00
2022-10-06T12:28:12.455Z,12076.00
2022-10-06T12:29:12.373Z,12124.00